Time;durP1;ratioP1;P1;durP2;ratioP2;P2;SDS_P1;SDS_P2;PMS_P1;PMS_P2;Temp;Humidity;BMP_temperature;BMP_pressure;BME280_temperature;BME280_humidity;BME280_pressure;Samples;Min_cycle;Max_cycle;Signal;HPM_P1;HPM_P2
2022/05/14 00:02:12;;;;;;;13.70;5.53;;;;;;;12.96;71.52;101337.31;4939431;29;20159;-79
2022/05/14 00:04:39;;;;;;;10.20;5.32;;;;;;;13.02;71.40;101333.25;4941291;29;20083;-79
2022/05/14 00:07:05;;;;;;;13.13;6.00;;;;;;;13.07;71.61;101327.53;4940508;29;20135;-80
2022/05/14 00:09:33;;;;;;;11.20;5.18;;;;;;;12.95;71.77;101329.59;4940106;29;20134;-80
2022/05/14 00:14:47;;;;;;;11.73;5.43;;;;;;;12.84;72.11;101328.03;4940905;29;20410;-79
2022/05/14 00:17:14;;;;;;;10.40;5.43;;;;;;;12.78;72.29;101328.63;4963381;23;20048;-88
2022/05/14 00:19:41;;;;;;;14.73;5.22;;;;;;;12.74;72.39;101322.06;4962186;28;20062;-88
2022/05/14 00:22:08;;;;;;;12.75;5.72;;;;;;;12.64;72.78;101326.59;4960743;28;20055;-87
2022/05/14 00:24:36;;;;;;;13.93;5.93;;;;;;;12.51;73.16;101311.22;4961167;28;20553;-89
2022/05/14 00:27:03;;;;;;;17.02;5.63;;;;;;;12.37;73.60;101309.13;4961121;28;20069;-87
2022/05/14 00:29:30;;;;;;;15.20;5.80;;;;;;;12.46;73.62;101312.66;4961378;28;20113;-88
2022/05/14 00:31:57;;;;;;;10.65;5.18;;;;;;;12.42;74.08;101320.00;4962138;28;20484;-88
2022/05/14 00:34:24;;;;;;;12.98;6.63;;;;;;;12.28;74.37;101310.06;4961866;28;20051;-88
2022/05/14 00:36:50;;;;;;;11.82;5.65;;;;;;;12.27;74.58;101316.28;4961657;28;20566;-89
2022/05/14 00:39:17;;;;;;;13.85;5.45;;;;;;;12.19;74.94;101303.91;4961775;28;20070;-88
2022/05/14 00:41:50;;;;;;;11.50;5.68;;;;;;;12.27;75.15;101316.28;4961177;28;20055;-87
2022/05/14 00:44:17;;;;;;;12.50;5.45;;;;;;;12.19;74.85;101305.69;4961391;28;20044;-88
2022/05/14 00:46:49;;;;;;;10.18;5.40;;;;;;;12.24;75.20;101313.94;4960767;28;20059;-88
2022/05/14 00:49:20;;;;;;;12.18;5.38;;;;;;;12.16;75.47;101314.69;4961233;28;20564;-88
2022/05/14 00:51:47;;;;;;;12.25;5.22;;;;;;;12.14;75.19;101313.19;4962059;28;20051;-88
2022/05/14 00:54:17;;;;;;;10.15;4.80;;;;;;;12.18;75.28;101325.03;4961174;28;20082;-88
2022/05/14 00:56:49;;;;;;;13.60;6.18;;;;;;;12.04;75.52;101308.00;4961911;28;20094;-88
2022/05/14 00:59:19;;;;;;;;;;;;;;;12.15;75.41;101326.16;4961796;28;20074;-88
2022/05/14 01:01:46;;;;;;;12.65;5.88;;;;;;;12.14;75.01;101319.25;4961568;29;19929;-88
2022/05/14 01:04:14;;;;;;;12.73;5.10;;;;;;;12.07;75.13;101310.34;4960221;28;20510;-88
2022/05/14 01:06:47;;;;;;;13.27;6.00;;;;;;;11.95;75.71;101309.72;4960904;28;20134;-88
2022/05/14 01:09:14;;;;;;;13.15;5.68;;;;;;;11.94;76.35;101312.50;4960038;28;20051;-87
2022/05/14 01:11:41;;;;;;;18.60;6.00;;;;;;;11.89;76.55;101312.09;4961128;28;20103;-87
2022/05/14 01:14:08;;;;;;;9.98;5.50;;;;;;;11.87;76.46;101317.50;4962416;28;20051;-88
2022/05/14 01:16:37;;;;;;;17.73;6.18;;;;;;;11.84;76.77;101316.97;4962111;28;20051;-88
2022/05/14 01:19:05;;;;;;;13.15;5.07;;;;;;;11.78;76.93;101315.78;4961004;28;20051;-88
2022/05/14 01:21:41;;;;;;;15.00;5.22;;;;;;;11.69;77.13;101318.44;4960428;28;20052;-88
2022/05/14 01:27:01;;;;;;;11.80;5.78;;;;;;;11.53;77.89;101325.13;4959769;29;20114;-88
2022/05/14 01:29:29;;;;;;;15.02;5.75;;;;;;;11.40;77.61;101308.91;4960232;28;20082;-88
2022/05/14 01:31:56;;;;;;;15.43;6.25;;;;;;;11.41;78.18;101307.94;4959856;28;20086;-88
2022/05/14 01:34:25;;;;;;;9.23;4.93;;;;;;;11.55;77.33;101328.41;4959222;28;20107;-87
2022/05/14 01:36:53;;;;;;;10.00;5.13;;;;;;;11.52;77.69;101336.56;4961267;28;20094;-88
2022/05/14 01:39:20;;;;;;;15.60;5.28;;;;;;;11.49;78.01;101328.16;4961888;28;20107;-87
2022/05/14 01:41:47;;;;;;;12.68;5.80;;;;;;;11.43;78.30;101326.94;4960541;28;20047;-87
2022/05/14 01:44:16;;;;;;;13.15;5.10;;;;;;;11.44;77.96;101333.84;4959779;28;20114;-88
2022/05/14 01:46:42;;;;;;;10.93;5.40;;;;;;;11.38;77.66;101328.34;4959359;28;20064;-88
2022/05/14 01:49:09;;;;;;;11.07;5.30;;;;;;;11.47;77.48;101330.94;4958768;28;20047;-88
2022/05/14 01:51:36;;;;;;;16.70;5.32;;;;;;;11.50;76.95;101335.06;4959649;28;20106;-88
2022/05/14 01:54:04;;;;;;;9.50;4.80;;;;;;;11.40;77.01;101318.56;4958843;28;20075;-88
2022/05/14 01:56:31;;;;;;;8.77;4.70;;;;;;;11.47;76.69;101335.34;4958149;28;20051;-89
2022/05/14 01:58:58;;;;;;;9.25;4.60;;;;;;;11.40;76.23;101329.84;4958666;28;20051;-87
2022/05/14 02:01:27;;;;;;;9.30;4.68;;;;;;;11.33;76.94;101336.66;4960116;28;20075;-88
2022/05/14 02:03:56;;;;;;;10.60;4.30;;;;;;;11.27;76.76;101334.63;4960321;28;20106;-87
2022/05/14 02:06:24;;;;;;;9.25;4.95;;;;;;;11.17;77.41;101324.16;4958669;28;20055;-88
2022/05/14 02:08:51;;;;;;;10.63;4.68;;;;;;;11.17;77.70;101329.41;4959314;28;20062;-88
2022/05/14 02:11:18;;;;;;;10.27;4.90;;;;;;;11.20;77.17;101330.91;4958962;28;20075;-88
2022/05/14 02:13:46;;;;;;;10.70;4.85;;;;;;;11.15;77.66;101341.00;4958837;28;20085;-87
2022/05/14 02:16:13;;;;;;;11.35;4.88;;;;;;;11.09;77.98;101337.16;4959010;28;20447;-88
2022/05/14 02:18:42;;;;;;;13.43;5.15;;;;;;;10.98;77.74;101314.56;4959722;28;20059;-88
2022/05/14 02:21:10;;;;;;;11.77;5.35;;;;;;;11.08;77.65;101329.44;4958720;28;20055;-88
2022/05/14 02:23:38;;;;;;;10.25;5.05;;;;;;;11.03;77.16;101336.88;4958860;28;20051;-88
2022/05/14 02:26:05;;;;;;;9.27;4.78;;;;;;;11.03;76.47;101319.38;4959233;28;20143;-88
2022/05/14 02:28:32;;;;;;;8.30;4.53;;;;;;;11.09;76.30;101315.38;4959338;28;20422;-87
2022/05/14 02:30:59;;;;;;;10.90;5.53;;;;;;;11.12;75.92;101338.66;4959457;28;20059;-88
2022/05/14 02:33:26;;;;;;;10.25;4.78;;;;;;;11.08;76.20;101334.66;4958662;28;20062;-88
2022/05/14 02:35:54;;;;;;;8.70;4.70;;;;;;;10.91;76.18;101320.50;4960073;28;20058;-89
2022/05/14 02:38:21;;;;;;;11.25;5.70;;;;;;;10.95;76.05;101329.72;4960083;28;20051;-88
2022/05/14 02:40:48;;;;;;;10.68;4.35;;;;;;;11.06;75.33;101328.75;4960502;28;20154;-88
2022/05/14 02:43:15;;;;;;;9.32;4.85;;;;;;;10.94;75.62;101342.00;4960026;28;20110;-88
2022/05/14 02:45:42;;;;;;;10.88;5.78;;;;;;;10.89;76.01;101331.13;4959212;28;20058;-88
2022/05/14 02:48:11;;;;;;;11.25;5.57;;;;;;;10.93;75.72;101337.72;4959301;28;20059;-88
2022/05/14 02:50:38;;;;;;;10.23;4.65;;;;;;;10.90;75.83;101335.38;4958701;28;20146;-88
2022/05/14 02:53:06;;;;;;;7.53;4.70;;;;;;;10.91;75.85;101344.06;4959314;28;20055;-88
2022/05/14 02:55:34;;;;;;;14.10;5.03;;;;;;;10.70;76.24;101335.56;4958365;28;20137;-88
2022/05/14 02:58:00;;;;;;;8.50;5.40;;;;;;;10.70;76.64;101332.97;4958917;28;20086;-88
2022/05/14 03:00:29;;;;;;;11.20;5.50;;;;;;;10.69;76.55;101333.94;4959192;28;20051;-89
2022/05/14 03:02:57;;;;;;;9.10;5.07;;;;;;;10.67;76.55;101346.31;4960281;28;20170;-88
2022/05/14 03:05:24;;;;;;;15.35;5.70;;;;;;;10.53;77.32;101345.78;4959201;28;20054;-88
2022/05/14 03:07:51;;;;;;;12.73;5.15;;;;;;;10.51;77.14;101339.03;4960086;28;20059;-88
2022/05/14 03:10:22;;;;;;;9.95;5.25;;;;;;;10.46;76.89;101320.28;4962272;28;20047;-88
2022/05/14 03:12:49;;;;;;;13.05;5.32;;;;;;;10.35;76.73;101328.31;4961955;28;20142;-88
2022/05/14 03:15:16;;;;;;;11.88;5.60;;;;;;;10.35;77.20;101342.22;4962781;28;20062;-88
2022/05/14 03:17:43;;;;;;;13.63;5.47;;;;;;;10.28;77.73;101335.88;4962060;28;20162;-88
2022/05/14 03:20:12;;;;;;;11.90;5.80;;;;;;;10.21;77.29;101330.34;4962646;28;20118;-88
2022/05/14 03:22:41;;;;;;;11.15;6.10;;;;;;;10.17;77.53;101322.88;4962187;28;20371;-88
2022/05/14 03:25:08;;;;;;;12.90;7.65;;;;;;;10.25;78.24;101342.19;4962069;28;20418;-88
2022/05/14 03:27:37;;;;;;;11.73;5.43;;;;;;;10.19;78.10;101341.88;4962062;29;20069;-88
2022/05/14 03:30:05;;;;;;;13.70;4.80;;;;;;;10.06;77.87;101326.44;4962208;28;20047;-88
2022/05/14 03:32:31;;;;;;;8.98;5.03;;;;;;;10.04;78.31;101330.16;4962327;28;20408;-88
2022/05/14 03:35:00;;;;;;;12.60;4.88;;;;;;;10.09;78.29;101335.81;4961467;28;20494;-88
2022/05/14 03:37:27;;;;;;;8.15;4.80;;;;;;;10.05;77.91;101330.03;4961305;28;20081;-88
2022/05/14 03:39:53;;;;;;;9.07;4.78;;;;;;;10.05;78.37;101329.19;4961483;28;20122;-88
2022/05/14 03:42:50;;;;;;;10.48;4.47;;;;;;;10.00;78.89;101326.97;4962150;28;20081;-88
2022/05/14 03:45:17;;;;;;;9.52;4.60;;;;;;;10.07;78.19;101325.47;4961691;28;20051;-88
2022/05/14 03:47:43;;;;;;;10.65;5.07;;;;;;;10.09;78.28;101333.19;4961414;28;20055;-88
2022/05/14 03:50:10;;;;;;;9.32;4.93;;;;;;;10.06;78.47;101326.44;4961041;28;20070;-88
2022/05/14 03:52:37;;;;;;;9.70;5.03;;;;;;;10.07;78.69;101337.72;4960936;28;20118;-87
2022/05/14 03:55:04;;;;;;;7.95;4.40;;;;;;;10.02;78.51;101334.69;4961045;28;20082;-87
2022/05/14 03:57:31;;;;;;;8.98;4.60;;;;;;;9.99;77.95;101326.16;4961279;28;20126;-87
2022/05/14 04:00:01;;;;;;;13.20;4.80;;;;;;;10.03;78.10;101326.72;4960912;28;20051;-86
2022/05/14 04:02:28;;;;;;;8.95;4.32;;;;;;;10.20;77.38;101333.94;4961865;28;20087;-87
2022/05/14 04:04:55;;;;;;;11.52;5.15;;;;;;;10.17;77.32;101323.72;4960703;28;20074;-87
2022/05/14 04:07:22;;;;;;;9.68;4.90;;;;;;;10.24;76.89;101344.94;4960681;28;20104;-87
2022/05/14 04:09:48;;;;;;;7.20;3.92;;;;;;;10.21;76.70;101337.38;4960796;28;20059;-85
2022/05/14 04:12:15;;;;;;;7.72;4.53;;;;;;;10.35;75.87;101325.69;4961697;28;20097;-86
2022/05/14 04:14:42;;;;;;;13.77;4.50;;;;;;;10.82;73.93;101358.03;4960730;28;20054;-87
2022/05/14 04:17:10;;;;;;;10.65;4.28;;;;;;;10.86;73.62;101357.59;4960798;28;20483;-87
2022/05/14 04:19:36;;;;;;;10.23;4.72;;;;;;;10.67;73.73;101339.28;4960282;28;20051;-87
2022/05/14 04:22:04;;;;;;;8.18;4.30;;;;;;;10.93;73.36;101358.69;4961279;28;20090;-87
2022/05/14 04:24:32;;;;;;;9.35;5.40;;;;;;;10.70;74.48;101356.50;4961630;28;20050;-87
2022/05/14 04:26:59;;;;;;;16.75;6.60;;;;;;;10.59;75.70;101355.69;4960577;28;20082;-87
2022/05/14 04:29:25;;;;;;;14.20;7.07;;;;;;;10.69;75.67;101366.16;4960907;28;20227;-88
2022/05/14 04:31:52;;;;;;;10.65;7.00;;;;;;;10.79;74.83;101345.22;4961013;28;20090;-89
2022/05/14 04:34:21;;;;;;;16.85;7.57;;;;;;;10.84;74.96;101367.41;4960352;28;20048;-88
2022/05/14 04:36:47;;;;;;;13.35;7.57;;;;;;;11.03;74.86;101347.38;4960127;28;20470;-87
2022/05/14 04:39:14;;;;;;;14.90;7.63;;;;;;;11.08;74.54;101366.09;4959496;28;20150;-88
2022/05/14 04:41:41;;;;;;;16.38;7.47;;;;;;;11.13;74.28;101363.88;4960415;28;20140;-88
2022/05/14 04:44:08;;;;;;;12.55;6.60;;;;;;;11.08;73.79;101366.09;4961585;28;20043;-88
2022/05/14 04:46:35;;;;;;;13.73;6.72;;;;;;;11.05;74.71;101369.00;4960745;28;20047;-88
2022/05/14 04:49:03;;;;;;;12.70;6.75;;;;;;;11.21;73.21;101382.34;4960337;28;20097;-88
2022/05/14 04:51:32;;;;;;;12.18;5.85;;;;;;;11.18;73.17;101372.16;4960507;28;20062;-88
2022/05/14 04:53:59;;;;;;;13.65;5.78;;;;;;;11.18;74.23;101372.16;4960618;28;20062;-88
2022/05/14 04:56:25;;;;;;;11.05;5.95;;;;;;;11.05;74.45;101367.19;4961099;28;20055;-88
2022/05/14 04:58:52;;;;;;;9.48;5.50;;;;;;;11.25;73.37;101368.00;4961898;28;20062;-87
2022/05/14 05:01:19;;;;;;;13.60;5.82;;;;;;;11.39;73.09;101385.03;4961370;28;20099;-88
2022/05/14 05:03:45;;;;;;;17.85;5.70;;;;;;;11.26;74.14;101385.38;4961158;28;20051;-88
2022/05/14 05:06:14;;;;;;;12.10;5.78;;;;;;;11.52;73.16;101370.66;4960121;28;20069;-88
2022/05/14 05:08:42;;;;;;;9.73;5.68;;;;;;;11.59;73.34;101365.66;4960349;29;20102;-88
2022/05/14 05:11:09;;;;;;;9.27;5.68;;;;;;;12.12;71.68;101388.59;4961388;28;20451;-87
2022/05/14 05:13:37;;;;;;;14.73;5.88;;;;;;;12.43;70.55;101381.19;4961001;28;20478;-88
2022/05/14 05:16:04;;;;;;;8.93;5.13;;;;;;;13.21;68.48;101390.91;4960195;28;20055;-87
2022/05/14 05:18:31;;;;;;;11.20;5.10;;;;;;;13.79;65.26;101386.72;4959387;28;20065;-88
2022/05/14 05:20:58;;;;;;;12.50;5.38;;;;;;;14.18;63.80;101387.00;4960387;28;20071;-88
2022/05/14 05:23:26;;;;;;;12.02;5.38;;;;;;;14.74;61.91;101388.91;4961132;28;20435;-88
2022/05/14 05:25:55;;;;;;;13.93;5.05;;;;;;;15.12;60.53;101378.69;4961059;28;20062;-88
2022/05/14 05:28:23;;;;;;;11.07;5.57;;;;;;;15.04;61.49;101400.63;4960541;28;20055;-88
2022/05/14 05:30:50;;;;;;;11.10;5.50;;;;;;;15.34;60.02;101387.69;4959479;28;20481;-88
2022/05/14 05:33:19;;;;;;;12.85;5.80;;;;;;;15.25;59.73;101392.16;4961651;28;20568;-89
2022/05/14 05:35:46;;;;;;;10.77;5.15;;;;;;;15.99;58.86;101400.69;4960146;28;20533;-89
2022/05/14 05:38:15;;;;;;;7.07;4.78;;;;;;;16.45;56.59;101405.03;4960904;28;20086;-89
2022/05/14 05:40:42;;;;;;;9.13;4.88;;;;;;;16.60;55.96;101399.78;4960918;28;20044;-89
2022/05/14 05:43:12;;;;;;;11.82;4.95;;;;;;;17.45;54.03;101421.53;4961710;28;20137;-89
2022/05/14 05:45:40;;;;;;;11.73;5.82;;;;;;;17.32;52.53;101410.75;4960741;29;20062;-88
2022/05/14 05:48:10;;;;;;;10.05;4.85;;;;;;;18.07;51.17;101399.94;4959706;28;20069;-89
2022/05/14 05:50:38;;;;;;;10.50;5.10;;;;;;;18.93;49.80;101411.41;4959945;28;20123;-89
2022/05/14 05:53:06;;;;;;;9.73;4.80;;;;;;;19.01;48.98;101413.09;4960658;28;20619;-89
2022/05/14 05:58:23;;;;;;;15.57;4.65;;;;;;;18.81;48.58;101423.56;4961338;29;20166;-89
2022/05/14 06:00:49;;;;;;;11.30;4.78;;;;;;;19.35;47.49;101410.50;4961343;28;20073;-89
2022/05/14 06:03:17;;;;;;;9.05;4.32;;;;;;;19.19;48.01;101410.81;4961323;28;20055;-89
2022/05/14 06:05:44;;;;;;;8.63;4.72;;;;;;;18.74;49.47;101418.19;4960336;28;20395;-89
2022/05/14 06:08:14;;;;;;;9.05;4.40;;;;;;;19.28;47.70;101428.22;4960689;28;20079;-89
2022/05/14 06:10:42;;;;;;;10.35;4.43;;;;;;;18.27;50.00;101420.56;4960152;28;20043;-89
2022/05/14 06:13:10;;;;;;;8.57;4.65;;;;;;;19.29;48.93;101427.22;4960299;28;20047;-88
2022/05/14 06:15:39;;;;;;;7.15;4.20;;;;;;;19.63;47.15;101428.25;4961778;28;20399;-88
2022/05/14 06:18:07;;;;;;;8.48;4.60;;;;;;;20.30;44.84;101430.16;4960561;28;20094;-89
2022/05/14 06:20:34;;;;;;;7.90;4.70;;;;;;;20.30;43.84;101427.50;4960319;28;20039;-89
2022/05/14 06:23:01;;;;;;;9.80;4.40;;;;;;;20.66;43.47;101413.91;4960965;28;20070;-88
2022/05/14 06:25:28;;;;;;;9.57;4.75;;;;;;;20.59;43.73;101429.84;4960141;28;20106;-89
2022/05/14 06:27:54;;;;;;;9.63;4.88;;;;;;;20.99;42.34;101420.03;4960137;28;20711;-88
2022/05/14 06:30:23;;;;;;;9.88;4.78;;;;;;;21.19;42.25;101425.34;4960353;28;20054;-88
2022/05/14 06:32:53;;;;;;;7.82;4.50;;;;;;;21.40;41.63;101430.44;4961533;28;20061;-88
2022/05/14 06:38:45;;;;;;;12.80;5.20;;;;;;;20.92;42.52;101416.56;5159780;23;20090;-83
2022/05/14 06:41:15;;;;;;;9.05;4.82;;;;;;;20.94;42.72;101413.69;4962828;29;20490;-83
2022/05/14 06:43:42;;;;;;;14.80;5.40;;;;;;;21.25;42.57;101432.53;4968625;28;20062;-83
2022/05/14 06:46:10;;;;;;;12.90;5.25;;;;;;;21.32;41.59;101427.19;4966711;28;20051;-83
2022/05/14 06:48:38;;;;;;;12.82;6.20;;;;;;;21.39;42.21;101450.13;4951850;29;20319;-83
2022/05/14 06:51:19;;;;;;;17.02;5.25;;;;;;;20.08;44.54;101424.97;4951554;29;20188;-83
2022/05/14 06:53:50;;;;;;;9.35;4.90;;;;;;;21.44;43.43;101455.63;4975335;23;20139;-79
2022/05/14 06:56:20;;;;;;;9.10;4.75;;;;;;;22.28;41.09;101459.25;4965411;28;20047;-79
2022/05/14 06:58:51;;;;;;;11.15;5.00;;;;;;;22.09;40.24;101463.69;4959300;28;20047;-79
2022/05/14 07:01:19;;;;;;;14.73;5.80;;;;;;;21.73;41.23;101458.88;4961046;29;20070;-77
2022/05/14 07:07:08;;;;;;;11.73;5.80;;;;;;;21.35;42.55;101446.22;4946225;29;20162;-80
2022/05/14 07:09:50;;;;;;;;;;;;;;;;;;;;;
2022/05/14 07:12:30;;;;;;;12.82;5.80;;;;;;;21.41;41.86;101440.06;4944985;29;20103;-81
2022/05/14 07:14:57;;;;;;;14.10;6.50;;;;;;;21.10;43.16;101446.03;4942668;29;20068;-78
2022/05/14 07:17:25;;;;;;;8.10;4.85;;;;;;;21.89;40.94;101447.72;4942353;29;20079;-79
2022/05/14 07:20:02;;;;;;;11.13;5.30;;;;;;;21.90;41.79;101459.19;4940745;29;20052;-80
2022/05/14 07:22:30;;;;;;;11.85;5.15;;;;;;;21.98;41.20;101451.78;4944381;29;20056;-79
2022/05/14 07:24:57;;;;;;;11.20;5.15;;;;;;;21.63;42.91;101459.28;4944139;29;20411;-79
2022/05/14 07:27:56;;;;;;;10.85;5.50;;;;;;;22.82;40.68;101448.91;4943981;29;20134;-79
2022/05/14 07:30:48;;;;;;;14.60;5.28;;;;;;;22.86;39.55;101451.13;4908856;29;20051;-81
2022/05/14 07:33:18;;;;;;;12.15;5.80;;;;;;;22.54;40.92;101450.31;4945717;29;20063;-82
2022/05/14 07:35:48;;;;;;;10.68;5.30;;;;;;;22.52;40.48;101437.19;4947980;29;20063;-81
2022/05/14 07:38:27;;;;;;;11.15;4.80;;;;;;;22.33;41.15;101438.13;4945975;29;20072;-80
2022/05/14 07:40:57;;;;;;;10.35;5.28;;;;;;;22.25;40.88;101446.34;4947024;29;20499;-82
2022/05/14 07:43:30;;;;;;;11.40;4.88;;;;;;;23.03;40.78;101426.34;4943662;29;20142;-81
2022/05/14 07:46:09;;;;;;;13.57;5.25;;;;;;;23.29;39.11;101443.97;4943318;29;20072;-80
2022/05/14 07:48:44;;;;;;;14.60;5.40;;;;;;;22.74;40.39;101441.13;4943744;29;20143;-81
2022/05/14 07:51:33;;;;;;;11.98;5.10;;;;;;;23.03;39.48;101417.53;4943120;29;20055;-81
2022/05/14 07:54:11;;;;;;;9.90;5.10;;;;;;;22.87;40.87;101429.56;4942364;29;20142;-80
2022/05/14 07:56:40;;;;;;;11.63;5.47;;;;;;;22.68;40.40;101419.84;4940309;29;20044;-78
2022/05/14 07:59:07;;;;;;;11.40;5.32;;;;;;;22.35;40.77;101428.88;4921819;29;20056;-80
2022/05/14 08:01:41;;;;;;;12.13;5.90;;;;;;;22.39;41.10;101442.59;4920796;29;20095;-80
2022/05/14 08:04:15;;;;;;;15.55;5.35;;;;;;;22.31;40.98;101418.84;4923245;29;20059;-82
2022/05/14 08:06:47;;;;;;;15.77;5.90;;;;;;;22.34;41.73;101445.91;4931401;29;20062;-80
2022/05/14 08:09:24;;;;;;;14.93;6.10;;;;;;;22.18;42.40;101449.09;4940455;29;20104;-81
2022/05/14 08:15:10;;;;;;;16.08;5.47;;;;;;;22.24;42.04;101428.72;4915576;29;20044;-80
2022/05/14 08:17:37;;;;;;;13.13;5.22;;;;;;;22.67;41.81;101440.38;4942618;29;20062;-81
2022/05/14 08:20:08;;;;;;;14.60;5.40;;;;;;;22.44;41.10;101440.94;4941506;29;20054;-81
2022/05/14 08:25:21;;;;;;;15.20;5.90;;;;;;;22.09;43.20;101435.19;4939097;29;20058;-80
2022/05/14 08:27:47;;;;;;;10.95;5.15;;;;;;;22.11;42.15;101434.97;4939014;29;20139;-78
2022/05/14 08:30:16;;;;;;;10.45;5.40;;;;;;;21.78;41.81;101430.53;4939255;29;20087;-79
2022/05/14 08:32:43;;;;;;;13.35;5.63;;;;;;;21.46;43.56;101426.97;4938808;29;20213;-77
2022/05/14 08:35:10;;;;;;;15.85;5.65;;;;;;;21.07;43.93;101434.97;4938716;29;20062;-78
2022/05/14 08:37:38;;;;;;;11.90;5.50;;;;;;;21.56;43.66;101431.03;4938810;29;20083;-79
2022/05/14 08:40:07;;;;;;;11.63;5.50;;;;;;;22.12;42.83;101432.09;4945295;29;20058;-79
2022/05/14 08:42:35;;;;;;;12.20;5.75;;;;;;;22.38;41.54;101425.78;4936505;29;20056;-79
2022/05/14 08:45:02;;;;;;;13.85;5.43;;;;;;;22.16;42.15;101432.50;4944862;29;20075;-79
2022/05/14 08:47:34;;;;;;;14.68;6.57;;;;;;;22.11;42.74;101438.44;4950052;28;20138;-79
2022/05/14 08:50:03;;;;;;;16.43;4.90;;;;;;;22.61;40.96;101432.41;4941883;29;20100;-76
2022/05/14 08:52:30;;;;;;;9.32;5.07;;;;;;;22.12;42.08;101442.75;4943188;28;20056;-77
2022/05/14 08:55:04;;;;;;;12.00;5.80;;;;;;;22.10;41.30;101433.34;4946823;28;20130;-80
2022/05/14 08:57:50;;;;;;;12.20;5.13;;;;;;;22.58;42.67;101433.66;4949068;28;20051;-83
2022/05/14 09:03:44;;;;;;;15.82;5.72;;;;;;;21.97;42.65;101407.53;4944764;28;20102;-80
2022/05/14 09:13:55;;;;;;;12.90;5.30;;;;;;;21.36;43.63;101391.13;4959388;28;20059;-82
2022/05/14 09:16:53;;;;;;;14.77;5.80;;;;;;;20.99;44.21;101413.88;4902693;29;20104;-81
2022/05/14 09:19:34;;;;;;;11.32;5.43;;;;;;;21.72;44.03;101419.94;4919307;29;20131;-80
2022/05/14 09:22:02;;;;;;;12.77;5.38;;;;;;;21.20;44.98;101429.66;4942342;29;20067;-84
2022/05/14 09:24:43;;;;;;;12.68;5.35;;;;;;;22.35;41.92;101431.53;4947442;29;20074;-86
2022/05/14 09:27:36;;;;;;;13.07;5.20;;;;;;;22.27;42.46;101421.13;4943199;29;20055;-83
2022/05/14 09:30:06;;;;;;;13.73;5.35;;;;;;;21.62;44.34;101414.22;4941725;29;20530;-83
2022/05/14 09:32:41;;;;;;;17.33;5.80;;;;;;;21.90;42.83;101430.72;4941405;29;20136;-83
2022/05/14 09:35:15;;;;;;;16.02;5.45;;;;;;;22.48;42.14;101419.97;4943007;29;20054;-81
2022/05/14 09:37:47;;;;;;;15.02;5.63;;;;;;;22.35;42.91;101422.72;4942063;29;20043;-83
2022/05/14 09:40:23;;;;;;;14.23;5.22;;;;;;;22.76;42.77;101409.69;4942122;29;20051;-86
2022/05/14 09:42:54;;;;;;;12.07;5.38;;;;;;;22.55;43.04;101393.28;4943132;29;20054;-83
2022/05/14 09:45:30;;;;;;;14.18;5.82;;;;;;;21.75;43.55;101414.16;4943426;29;20058;-83
2022/05/14 09:48:09;;;;;;;12.55;5.45;;;;;;;20.70;46.71;101413.28;4942340;29;20138;-85
2022/05/14 09:50:36;;;;;;;13.68;5.93;;;;;;;21.62;45.75;101393.75;4942478;29;20119;-83
2022/05/14 09:53:06;;;;;;;14.23;5.47;;;;;;;22.45;43.64;101401.75;4942004;29;20051;-83
2022/05/14 09:59:02;;;;;;;11.38;6.68;;;;;;;22.64;42.73;101382.13;4939516;29;20048;-84
2022/05/14 10:01:41;;;;;;;13.55;6.18;;;;;;;22.90;42.61;101401.63;4937530;29;20059;-83
2022/05/14 10:04:27;;;;;;;16.70;6.10;;;;;;;22.65;43.97;101410.44;4938947;29;20059;-84
2022/05/14 10:06:58;;;;;;;13.60;6.22;;;;;;;22.40;44.60;101404.22;4938864;29;20578;-84
2022/05/14 10:09:35;;;;;;;11.43;5.75;;;;;;;22.51;43.85;101392.88;4938457;29;20055;-83
2022/05/14 10:12:08;;;;;;;12.48;6.68;;;;;;;22.44;44.01;101403.59;4936908;29;20142;-83
2022/05/14 10:14:51;;;;;;;12.35;6.30;;;;;;;22.83;43.55;101412.34;4936446;29;20134;-82
2022/05/14 10:17:34;;;;;;;15.13;6.13;;;;;;;22.62;44.32;101405.53;4939822;29;20507;-83
2022/05/14 10:20:36;;;;;;;11.63;6.07;;;;;;;22.57;43.87;101413.34;4938838;29;20051;-81
2022/05/14 10:29:07;;;;;;;17.38;6.00;;;;;;;22.14;44.51;101403.38;4939174;29;20379;-82
2022/05/14 10:31:47;;;;;;;13.77;6.57;;;;;;;22.34;45.24;101400.56;4939262;29;20430;-80
2022/05/14 10:34:18;;;;;;;12.00;6.10;;;;;;;22.95;43.63;101389.25;4940531;29;20151;-83
2022/05/14 10:36:48;;;;;;;13.70;6.15;;;;;;;23.06;43.46;101385.88;4941355;29;20082;-84
2022/05/14 10:39:26;;;;;;;18.67;7.45;;;;;;;22.01;44.98;101391.94;4940103;29;20078;-83
2022/05/14 10:42:00;;;;;;;12.82;5.93;;;;;;;22.34;45.36;101389.91;4941160;29;20071;-84
2022/05/14 10:44:34;;;;;;;20.20;6.65;;;;;;;22.41;44.42;101387.19;4938868;29;20064;-83
2022/05/14 10:47:06;;;;;;;15.00;6.40;;;;;;;22.12;44.28;101388.63;4919875;29;20087;-84
2022/05/14 10:49:47;;;;;;;15.85;5.70;;;;;;;22.80;43.99;101392.25;4919332;29;20055;-82
2022/05/14 10:52:20;;;;;;;15.45;6.32;;;;;;;22.60;42.15;101382.78;4920908;29;20052;-78
2022/05/14 10:54:52;;;;;;;15.20;5.88;;;;;;;22.78;42.62;101388.16;4919710;29;20132;-81
2022/05/14 10:57:40;;;;;;;16.88;5.97;;;;;;;22.56;42.83;101389.56;4922137;29;20468;-80
2022/05/14 11:00:20;;;;;;;15.10;6.00;;;;;;;22.47;42.48;101383.69;4923019;29;20114;-81
2022/05/14 11:03:00;;;;;;;14.85;6.15;;;;;;;22.42;43.29;101391.50;4940732;29;20086;-82
2022/05/14 11:05:37;;;;;;;19.42;6.13;;;;;;;22.65;43.48;101388.28;4939754;29;20092;-81
2022/05/14 11:08:14;;;;;;;10.25;5.57;;;;;;;22.98;43.26;101377.34;4940794;29;20048;-81
2022/05/14 11:10:44;;;;;;;14.23;5.63;;;;;;;23.37;41.82;101394.81;4937475;29;20056;-81
2022/05/14 11:13:20;;;;;;;17.77;5.50;;;;;;;23.45;42.21;101373.16;4937139;29;20066;-80
2022/05/14 11:15:49;;;;;;;13.50;5.20;;;;;;;23.61;41.11;101395.81;4937496;29;20060;-81
2022/05/14 11:18:31;;;;;;;14.00;5.70;;;;;;;23.57;40.78;101390.09;4938931;29;20055;-80
2022/05/14 11:21:06;;;;;;;16.15;5.53;;;;;;;23.08;41.44;101388.34;4932430;29;20083;-81
2022/05/14 11:23:47;;;;;;;10.60;5.80;;;;;;;23.27;41.38;101384.63;4940915;29;20043;-82
2022/05/14 11:26:26;;;;;;;12.57;5.00;;;;;;;22.81;42.42;101366.41;4938692;29;20055;-83
2022/05/14 11:32:49;;;;;;;16.90;6.00;;;;;;;23.39;41.46;101380.19;4907692;29;20138;-86
2022/05/14 11:35:25;;;;;;;16.42;5.55;;;;;;;23.00;41.52;101362.75;4948844;29;20054;-83
2022/05/14 11:41:14;;;;;;;12.20;5.63;;;;;;;22.26;42.71;101349.34;4926568;29;20056;-82
2022/05/14 11:43:58;;;;;;;11.27;5.80;;;;;;;22.66;43.01;101369.38;4942989;29;20502;-83
2022/05/14 11:46:30;;;;;;;13.95;6.18;;;;;;;22.94;42.06;101365.47;4946201;29;20134;-83
2022/05/14 11:49:22;;;;;;;15.57;5.72;;;;;;;23.24;41.07;101370.91;4945090;29;20054;-83
2022/05/14 11:52:09;;;;;;;16.25;5.50;;;;;;;23.13;40.15;101354.59;4918866;29;20135;-83
2022/05/14 11:54:46;;;;;;;12.63;6.05;;;;;;;23.22;39.29;101365.78;4937075;29;20048;-81
2022/05/14 11:57:24;;;;;;;10.40;4.80;;;;;;;23.80;38.24;101376.84;4933351;29;20052;-82
2022/05/14 12:00:00;;;;;;;14.48;5.20;;;;;;;23.43;38.80;101375.22;4939831;29;20063;-80
2022/05/14 12:09:43;;;;;;;12.98;5.00;;;;;;;23.69;38.24;101363.41;4883022;29;20170;-82
2022/05/14 12:26:45;;;;;;;12.00;4.53;;;;;;;23.43;41.04;101360.00;4784027;29;20134;-79
2022/05/14 12:53:14;;;;;;;11.15;5.63;;;;;;;23.60;40.01;101356.78;4916221;28;20064;-82
2022/05/14 12:58:58;;;;;;;10.18;4.88;;;;;;;23.86;38.99;101331.56;4959592;28;20414;-80
2022/05/14 13:01:34;;;;;;;11.82;5.30;;;;;;;23.81;39.28;101335.72;4962017;28;20126;-81
2022/05/14 13:04:07;;;;;;;9.80;4.70;;;;;;;23.61;39.56;101339.72;4965095;28;20086;-79
2022/05/14 13:06:36;;;;;;;11.40;5.05;;;;;;;24.09;39.52;101332.47;4947579;28;20051;-81
2022/05/14 13:09:08;;;;;;;15.20;4.88;;;;;;;24.03;39.39;101327.22;4943191;29;20111;-80
2022/05/14 13:11:37;;;;;;;14.93;5.72;;;;;;;23.58;40.57;101327.63;4941288;29;20115;-80
2022/05/14 13:14:14;;;;;;;12.50;4.85;;;;;;;23.94;39.28;101323.22;4939746;29;20106;-81